Main page
METAR-TAF:

METAR-TAF

Airports :

Léopold Sédar Senghor International Airport

Dakar, Senegal

latitude: 14-44N, longitude: 017-30W, elevation: 27 m

Current weather observation

The report was made 1 hour and 7 minutes ago, at 00:00 UTC
Wind 12 kt from the North/Northwest
Temperature 20°C
Humidity 94%
Pressure 1010 hPa
Visibility: 8000 m

METAR: GOOY 110000Z 34012KT 8000 NSC 20/19 Q1010

Time: 01:07 (01:07 UTC)

Forecast

The report was made 2 hours and 7 minutes ago, at 23:00 UTC
Forecast valid from 11 at 00 UTC to 12 at 06 UTC
Wind 10 kt from the North/Northwest
Visibility: 8000 m

TAF: GOOY 102300Z 1100/1206 34010KT 8000 NSC

Weather observations and forecasts of more than 4000 airports (METAR and TAF reports).

The available stations are represented by yellow and red dots on the map.

Hover mouse over dot to see the name of the station.

Then click to see weather observations and forecasts.

To change the map : click on the green buttons with a black cross to zoom in, on the green button with a dash to zoom out, or on the green arrows for adjacent maps.


METAR-TAF: